BEL2JZ EBBR-ESSA
Flight info
| Callsign | BEL2JZ |
|---|---|
| Flight time | N/A |
| Altitude | 36000 |
| Route | NIK2X NIK L191 VICOT N873 SPY DCT KESUR/N0446F370 DCT BEDOS N851 PELUP Z226 NILUG NILUG3P |
| Aircraft | A21N/M-SDE2E3FGHIRWXY/LB1 |
Departure
| Time | 2026-05-06 13:02 |
|---|---|
| Airport | Brussels Airport (EBBR) |
Arrival
| Time | N/A |
|---|---|
| Airport | Stockholm-Arlanda Airport (ESSA) |
| Time | Latitude | Longitude | Altitude | Speed | Heading |
|---|---|---|---|---|---|
| 2026-05-06 12:49 | 50.89249 | 4.48357 | 161 ft | 0 kts | 70° |
| 2026-05-06 12:57 | 50.89249 | 4.48358 | 161 ft | 0 kts | 70° |
| 2026-05-06 12:57 | 50.89255 | 4.48385 | 160 ft | 3 kts | 83° |
| 2026-05-06 12:58 | 50.89232 | 4.48423 | 160 ft | 5 kts | 143° |
| 2026-05-06 12:58 | 50.89208 | 4.48485 | 159 ft | 8 kts | 95° |
| 2026-05-06 12:58 | 50.89221 | 4.48582 | 159 ft | 9 kts | 73° |
| 2026-05-06 12:58 | 50.89246 | 4.48689 | 158 ft | 11 kts | 69° |
| 2026-05-06 12:59 | 50.89276 | 4.48810 | 157 ft | 12 kts | 69° |
| 2026-05-06 12:59 | 50.89309 | 4.48943 | 157 ft | 13 kts | 69° |
| 2026-05-06 12:59 | 50.89285 | 4.49056 | 157 ft | 12 kts | 173° |
| 2026-05-06 12:59 | 50.89203 | 4.49037 | 159 ft | 11 kts | 195° |
| 2026-05-06 13:00 | 50.89129 | 4.49005 | 160 ft | 10 kts | 195° |
| 2026-05-06 13:00 | 50.89056 | 4.48974 | 162 ft | 10 kts | 195° |
| 2026-05-06 13:00 | 50.88984 | 4.48943 | 163 ft | 10 kts | 195° |
| 2026-05-06 13:00 | 50.88912 | 4.48912 | 164 ft | 10 kts | 195° |
| 2026-05-06 13:01 | 50.88842 | 4.48883 | 165 ft | 10 kts | 191° |
| 2026-05-06 13:01 | 50.88760 | 4.48910 | 167 ft | 17 kts | 124° |
| 2026-05-06 13:01 | 50.88729 | 4.49096 | 168 ft | 16 kts | 76° |
| 2026-05-06 13:01 | 50.88930 | 4.49241 | 167 ft | 70 kts | 13° |
| 2026-05-06 13:02 | 50.89704 | 4.49539 | 149 ft | 151 kts | 13° |
| 2026-05-06 13:02 | 50.90883 | 4.50038 | 494 ft | 189 kts | 15° |
| 2026-05-06 13:02 | 50.92166 | 4.50543 | 1408 ft | 198 kts | 10° |
| 2026-05-06 13:02 | 50.93470 | 4.50740 | 2610 ft | 185 kts | 356° |
| 2026-05-06 13:03 | 50.94656 | 4.49862 | 3058 ft | 201 kts | 323° |
| 2026-05-06 13:03 | 50.95726 | 4.48258 | 3358 ft | 222 kts | 320° |
| 2026-05-06 13:03 | 50.96885 | 4.46520 | 3759 ft | 239 kts | 320° |
| 2026-05-06 13:03 | 50.98151 | 4.44661 | 4220 ft | 254 kts | 321° |
| 2026-05-06 13:04 | 50.99479 | 4.42737 | 4923 ft | 259 kts | 321° |
| 2026-05-06 13:04 | 51.00799 | 4.40840 | 5674 ft | 262 kts | 321° |
| 2026-05-06 13:04 | 51.02150 | 4.38908 | 6419 ft | 264 kts | 321° |
| 2026-05-06 13:04 | 51.03526 | 4.36944 | 7142 ft | 267 kts | 320° |
| 2026-05-06 13:05 | 51.04900 | 4.34986 | 7823 ft | 271 kts | 320° |
| 2026-05-06 13:05 | 51.06313 | 4.32971 | 8497 ft | 275 kts | 319° |
| 2026-05-06 13:05 | 51.07736 | 4.30945 | 9154 ft | 278 kts | 319° |
| 2026-05-06 13:05 | 51.09190 | 4.28869 | 9803 ft | 282 kts | 319° |
| 2026-05-06 13:06 | 51.10652 | 4.26780 | 10350 ft | 289 kts | 319° |
| 2026-05-06 13:06 | 51.12185 | 4.24590 | 10652 ft | 305 kts | 319° |
| 2026-05-06 13:06 | 51.13799 | 4.22281 | 10933 ft | 320 kts | 319° |
| 2026-05-06 13:06 | 51.15478 | 4.19881 | 11207 ft | 335 kts | 319° |
| 2026-05-06 13:07 | 51.17312 | 4.17477 | 11541 ft | 348 kts | 323° |
| 2026-05-06 13:07 | 51.19271 | 4.15141 | 12089 ft | 352 kts | 323° |
| 2026-05-06 13:07 | 51.21243 | 4.12824 | 12714 ft | 355 kts | 324° |
| 2026-05-06 13:07 | 51.23222 | 4.10501 | 13325 ft | 358 kts | 323° |
| 2026-05-06 13:08 | 51.25237 | 4.08148 | 13912 ft | 360 kts | 325° |
| 2026-05-06 13:08 | 51.27451 | 4.06311 | 14434 ft | 364 kts | 339° |
| 2026-05-06 13:08 | 51.29929 | 4.05429 | 15000 ft | 368 kts | 354° |
| 2026-05-06 13:08 | 51.32511 | 4.05284 | 15554 ft | 371 kts | 358° |